createdAt,value
2018-09-01T00:00:04.474Z,57.32
2018-09-01T00:02:32.186Z,56.76
2018-09-01T00:04:59.973Z,57.35
2018-09-01T00:07:27.781Z,56.53
2018-09-01T00:09:55.588Z,57.03
2018-09-01T00:12:23.403Z,57.24
2018-09-01T00:14:51.109Z,57.45
2018-09-01T00:17:24.463Z,57.23
2018-09-01T00:19:52.414Z,56.68
2018-09-01T00:22:20.111Z,56.43
2018-09-01T00:24:47.788Z,57.11
2018-09-01T00:27:15.550Z,57.10
2018-09-01T00:29:43.355Z,56.51
2018-09-01T00:32:12.056Z,56.69
2018-09-01T00:34:39.793Z,56.49
2018-09-01T00:37:07.562Z,56.45
2018-09-01T00:39:39.588Z,56.37
2018-09-01T00:42:07.383Z,56.38
2018-09-01T00:44:35.103Z,56.28
2018-09-01T00:47:02.815Z,56.98
2018-09-01T00:49:30.555Z,57.04
2018-09-01T00:51:58.337Z,57.00
2018-09-01T00:54:27.918Z,56.36
2018-09-01T00:56:55.606Z,56.99
2018-09-01T00:59:23.246Z,56.50
2018-09-01T01:01:50.980Z,56.71
2018-09-01T01:04:18.892Z,56.96
2018-09-01T01:06:46.672Z,56.41
2018-09-01T01:09:14.545Z,56.25
2018-09-01T01:11:42.298Z,57.00
2018-09-01T01:14:10.108Z,56.27
2018-09-01T01:16:37.873Z,56.22
2018-09-01T01:19:05.642Z,56.88
2018-09-01T01:21:33.621Z,57.10
2018-09-01T01:24:01.336Z,56.84
2018-09-01T01:26:29.081Z,56.43
2018-09-01T01:28:56.856Z,56.93
2018-09-01T01:31:24.607Z,56.69
2018-09-01T01:33:52.360Z,57.08
2018-09-01T01:36:20.153Z,56.10
2018-09-01T01:38:48.005Z,56.13
2018-09-01T01:41:15.772Z,56.68
2018-09-01T01:43:43.607Z,56.83
2018-09-01T01:46:11.336Z,56.29
2018-09-01T01:48:39.376Z,56.76
2018-09-01T01:51:07.202Z,56.85
2018-09-01T01:53:34.993Z,56.12
2018-09-01T01:56:02.874Z,56.05
2018-09-01T01:58:30.689Z,56.15
2018-09-01T02:00:58.671Z,56.19
2018-09-01T02:03:26.395Z,56.49
2018-09-01T02:05:54.221Z,56.58
2018-09-01T02:08:21.933Z,56.86
2018-09-01T02:10:49.676Z,56.83
2018-09-01T02:13:17.413Z,56.81
2018-09-01T02:15:45.205Z,55.99
2018-09-01T02:18:13.498Z,56.74
2018-09-01T02:20:41.261Z,56.70
2018-09-01T02:23:09.041Z,56.00
2018-09-01T02:25:36.894Z,56.19
2018-09-01T02:28:04.636Z,56.02
2018-09-01T02:30:32.378Z,56.51
2018-09-01T02:33:00.094Z,55.98
2018-09-01T02:35:27.943Z,56.76
2018-09-01T02:37:55.740Z,56.32
2018-09-01T02:40:23.601Z,56.02
2018-09-01T02:42:51.264Z,55.96
2018-09-01T02:45:18.982Z,56.09
2018-09-01T02:47:46.693Z,56.02
2018-09-01T02:50:14.363Z,56.69
2018-09-01T02:52:42.135Z,56.33
2018-09-01T02:55:09.904Z,56.71
2018-09-01T02:57:37.574Z,56.00
2018-09-01T03:00:09.607Z,56.69
2018-09-01T03:02:43.389Z,55.96
2018-09-01T03:05:11.310Z,55.91
2018-09-01T03:07:39.039Z,56.43
2018-09-01T03:10:06.846Z,55.92
2018-09-01T03:12:34.600Z,56.70
2018-09-01T03:15:02.302Z,55.64
2018-09-01T03:17:30.100Z,56.08
2018-09-01T03:19:57.867Z,55.73
2018-09-01T03:22:25.657Z,56.33
2018-09-01T03:24:53.386Z,56.17
2018-09-01T03:27:21.247Z,55.59
2018-09-01T03:29:48.894Z,55.98
2018-09-01T03:32:16.581Z,56.46
2018-09-01T03:34:44.216Z,55.59
2018-09-01T03:37:11.833Z,55.67
2018-09-01T03:39:39.474Z,56.04
2018-09-01T03:42:07.292Z,55.63
2018-09-01T03:44:35.038Z,56.00
2018-09-01T03:47:02.832Z,55.88
2018-09-01T03:49:30.623Z,56.23
2018-09-01T03:51:58.408Z,55.74
2018-09-01T03:54:26.192Z,55.52
2018-09-01T03:56:54.075Z,56.51
2018-09-01T03:59:21.829Z,56.04
2018-09-01T04:01:49.635Z,55.89
2018-09-01T04:04:17.340Z,56.06
2018-09-01T04:06:45.125Z,56.52
2018-09-01T04:09:13.291Z,55.78
2018-09-01T04:11:40.990Z,55.81
2018-09-01T04:14:08.766Z,56.49
2018-09-01T04:16:36.553Z,55.79
2018-09-01T04:19:17.256Z,56.60
2018-09-01T04:21:45.442Z,56.62
2018-09-01T04:24:13.461Z,55.81
2018-09-01T04:26:41.186Z,55.76
2018-09-01T04:29:08.884Z,56.50
2018-09-01T04:31:36.690Z,56.43
2018-09-01T04:34:04.369Z,56.55
2018-09-01T04:36:32.008Z,56.46
2018-09-01T04:38:59.674Z,55.79
2018-09-01T04:41:27.475Z,55.89
2018-09-01T04:43:55.333Z,55.77
2018-09-01T04:46:23.080Z,55.98
2018-09-01T04:48:50.779Z,55.81
2018-09-01T04:51:18.597Z,56.24
2018-09-01T04:53:46.342Z,56.49
2018-09-01T04:56:14.062Z,56.05
2018-09-01T04:58:41.862Z,55.92
2018-09-01T05:01:10.120Z,56.57
2018-09-01T05:03:38.088Z,56.44
2018-09-01T05:06:05.774Z,55.76
2018-09-01T05:08:33.521Z,55.73
2018-09-01T05:11:01.246Z,56.41
2018-09-01T05:13:28.972Z,56.48
2018-09-01T05:15:56.679Z,56.41
2018-09-01T05:18:24.442Z,55.78
2018-09-01T05:20:52.107Z,55.55
2018-09-01T05:23:19.808Z,55.63
2018-09-01T05:25:47.550Z,55.35
2018-09-01T05:28:15.315Z,55.35
2018-09-01T05:30:43.057Z,56.33
2018-09-01T05:33:10.749Z,56.13
2018-09-01T05:35:39.042Z,56.04
2018-09-01T05:38:06.700Z,56.27
2018-09-01T05:40:34.380Z,55.70
2018-09-01T05:43:02.050Z,56.15
2018-09-01T05:45:29.732Z,55.64
2018-09-01T05:47:57.414Z,56.04
2018-09-01T05:50:25.155Z,55.88
2018-09-01T05:52:52.921Z,55.79
2018-09-01T05:55:20.697Z,55.68
2018-09-01T05:57:48.481Z,55.63
2018-09-01T06:00:20.402Z,55.63
2018-09-01T06:02:48.770Z,55.68
2018-09-01T06:05:16.578Z,56.46
2018-09-01T06:07:44.346Z,56.46
2018-09-01T06:10:12.040Z,55.88
2018-09-01T06:12:39.694Z,55.78
2018-09-01T06:15:07.638Z,56.20
2018-09-01T06:17:35.856Z,55.77
2018-09-01T06:20:03.565Z,56.48
2018-09-01T06:22:31.476Z,56.42
2018-09-01T06:24:59.306Z,55.72
2018-09-01T06:27:34.437Z,56.49
2018-09-01T06:30:02.580Z,56.53
2018-09-01T06:32:30.457Z,56.10
2018-09-01T06:34:58.252Z,56.51
2018-09-01T06:37:26.043Z,56.17
2018-09-01T06:39:53.735Z,56.50
2018-09-01T06:42:21.552Z,55.92
2018-09-01T06:44:49.262Z,55.66
2018-09-01T06:47:17.350Z,56.30
2018-09-01T06:49:45.054Z,55.51
2018-09-01T06:52:12.780Z,56.05
2018-09-01T06:54:40.512Z,55.62
2018-09-01T06:57:08.171Z,55.83
2018-09-01T06:59:35.893Z,56.33
2018-09-01T07:02:03.595Z,56.43
2018-09-01T07:04:31.284Z,56.27
2018-09-01T07:06:58.951Z,56.38
2018-09-01T07:09:26.617Z,56.39
2018-09-01T07:11:54.307Z,56.39
2018-09-01T07:14:22.054Z,56.38
2018-09-01T07:16:49.686Z,56.95
2018-09-01T07:19:17.387Z,56.73
2018-09-01T07:21:45.297Z,56.74
2018-09-01T07:24:13.010Z,56.76
2018-09-01T07:26:40.694Z,56.37
2018-09-01T07:29:08.488Z,56.14
2018-09-01T07:31:37.512Z,57.21
2018-09-01T07:34:04.894Z,57.14
2018-09-01T07:36:32.631Z,57.02
2018-09-01T07:39:00.314Z,56.95
2018-09-01T07:41:28.126Z,56.48
2018-09-01T07:43:55.769Z,56.42
2018-09-01T07:46:23.433Z,56.48
2018-09-01T07:48:51.065Z,56.49
2018-09-01T07:51:19.042Z,56.36
2018-09-01T07:53:46.677Z,56.28
2018-09-01T07:56:14.368Z,56.32
2018-09-01T07:58:41.961Z,56.84
2018-09-01T08:01:09.762Z,56.98
2018-09-01T08:03:37.408Z,56.09
2018-09-01T08:06:05.046Z,56.54
2018-09-01T08:08:32.682Z,56.14
2018-09-01T08:11:00.313Z,56.09
2018-09-01T08:13:28.261Z,57.14
2018-09-01T08:15:55.921Z,55.95
2018-09-01T08:18:23.557Z,56.44
2018-09-01T08:20:51.262Z,56.69
2018-09-01T08:23:18.884Z,56.18
2018-09-01T08:25:46.605Z,56.88
2018-09-01T08:28:14.298Z,56.83
2018-09-01T08:30:41.938Z,57.00
2018-09-01T08:33:09.578Z,56.94
2018-09-01T08:35:37.229Z,57.03
2018-09-01T08:38:04.882Z,56.15
2018-09-01T08:40:32.514Z,56.37
2018-09-01T08:43:00.155Z,57.14
2018-09-01T08:45:28.144Z,57.25
2018-09-01T08:47:55.774Z,56.48
2018-09-01T08:50:23.408Z,56.61
2018-09-01T08:52:51.118Z,56.52
2018-09-01T08:55:18.771Z,56.48
2018-09-01T08:57:46.430Z,57.37
2018-09-01T09:00:14.197Z,56.71
2018-09-01T09:02:41.825Z,57.41
2018-09-01T09:05:12.789Z,56.90
2018-09-01T09:07:40.465Z,56.59
2018-09-01T09:10:08.105Z,56.73
2018-09-01T09:12:35.744Z,56.81
2018-09-01T09:15:03.432Z,57.14
2018-09-01T09:17:31.099Z,56.79
2018-09-01T09:19:58.724Z,56.68
2018-09-01T09:22:26.438Z,57.41
2018-09-01T09:24:54.074Z,57.49
2018-09-01T09:27:21.734Z,57.43
2018-09-01T09:29:49.515Z,56.58
2018-09-01T09:32:17.136Z,56.57
2018-09-01T09:34:44.829Z,57.40
2018-09-01T09:37:12.445Z,57.40
2018-09-01T09:39:40.109Z,57.40
2018-09-01T09:42:07.740Z,56.60
2018-09-01T09:44:35.410Z,56.60
2018-09-01T09:47:03.142Z,56.67
2018-09-01T09:49:30.785Z,56.67
2018-09-01T09:51:58.432Z,56.48
2018-09-01T09:54:26.158Z,56.73
2018-09-01T09:56:53.797Z,56.49
2018-09-01T09:59:21.545Z,56.94
2018-09-01T10:01:49.178Z,56.24
2018-09-01T10:04:16.864Z,56.76
2018-09-01T10:06:44.513Z,56.75
2018-09-01T10:09:14.321Z,56.61
2018-09-01T10:11:42.775Z,56.69
2018-09-01T10:14:10.876Z,56.99
2018-09-01T10:16:38.842Z,57.10
2018-09-01T10:19:06.497Z,56.55
2018-09-01T10:21:34.129Z,55.62
2018-09-01T10:24:01.836Z,55.35
2018-09-01T10:26:29.457Z,55.04
2018-09-01T10:28:57.077Z,54.67
2018-09-01T10:31:24.719Z,54.29
2018-09-01T10:33:52.355Z,55.54
2018-09-01T10:36:20.210Z,55.76
2018-09-01T10:38:48.002Z,55.96
2018-09-01T10:41:15.724Z,56.51
2018-09-01T10:43:43.479Z,56.57
2018-09-01T10:46:11.206Z,56.09
2018-09-01T10:48:38.888Z,56.64
2018-09-01T10:51:06.636Z,56.60
2018-09-01T10:53:34.335Z,56.06
2018-09-01T10:56:02.160Z,56.73
2018-09-01T10:58:29.881Z,55.82
2018-09-01T11:00:57.609Z,55.96
2018-09-01T11:03:25.331Z,56.68
2018-09-01T11:05:53.058Z,55.98
2018-09-01T11:08:20.801Z,56.63
2018-09-01T11:10:48.603Z,55.86
2018-09-01T11:13:16.376Z,56.03
2018-09-01T11:15:44.084Z,56.44
2018-09-01T11:18:11.802Z,56.67
2018-09-01T11:20:39.520Z,56.14
2018-09-01T11:23:07.199Z,55.87
2018-09-01T11:25:34.969Z,56.61
2018-09-01T11:28:02.689Z,55.88
2018-09-01T11:30:30.468Z,57.00
2018-09-01T11:32:58.218Z,56.51
2018-09-01T11:35:25.973Z,56.55
2018-09-01T11:37:53.712Z,56.57
2018-09-01T11:40:21.330Z,55.82
2018-09-01T11:42:49.095Z,56.54
2018-09-01T11:45:16.711Z,55.41
2018-09-01T11:47:44.348Z,56.06
2018-09-01T11:50:12.072Z,56.58
2018-09-01T11:52:39.680Z,55.79
2018-09-01T11:55:07.555Z,56.59
2018-09-01T11:57:35.583Z,56.29
2018-09-01T12:00:03.652Z,55.85
2018-09-01T12:02:31.722Z,56.39
2018-09-01T12:04:59.743Z,56.63
2018-09-01T12:07:28.058Z,55.79
2018-09-01T12:09:56.133Z,56.01
2018-09-01T12:12:25.558Z,56.83
2018-09-01T12:14:54.053Z,56.58
2018-09-01T12:17:22.179Z,56.62
2018-09-01T12:22:17.257Z,56.65
2018-09-01T12:24:44.887Z,56.65
2018-09-01T12:32:06.506Z,56.83
2018-09-01T12:37:00.760Z,55.92
2018-09-01T12:39:28.406Z,56.28
2018-09-01T12:41:56.074Z,56.55
2018-09-01T12:44:23.701Z,56.00
2018-09-01T12:46:51.395Z,56.43
2018-09-01T12:49:19.117Z,56.20
2018-09-01T12:51:46.764Z,56.20
2018-09-01T12:54:14.407Z,56.85
2018-09-01T12:59:08.898Z,56.53
2018-09-01T13:01:36.905Z,56.38
2018-09-01T13:04:04.689Z,56.81
2018-09-01T13:11:25.679Z,56.18
2018-09-01T13:13:53.511Z,56.91
2018-09-01T13:16:21.146Z,56.25
2018-09-01T13:18:48.806Z,56.75
2018-09-01T13:21:16.498Z,57.03
2018-09-01T13:23:44.126Z,56.53
2018-09-01T13:26:11.759Z,56.33
2018-09-01T13:28:39.422Z,57.12
2018-09-01T13:31:07.049Z,57.05
2018-09-01T13:33:34.913Z,56.87
2018-09-01T13:36:02.561Z,56.46
2018-09-01T13:38:30.267Z,57.19
2018-09-01T13:40:57.949Z,56.57
2018-09-01T13:43:25.576Z,56.42
2018-09-01T13:45:53.261Z,56.36
2018-09-01T13:48:20.897Z,57.15
2018-09-01T13:50:48.524Z,57.39
2018-09-01T13:53:16.171Z,56.41
2018-09-01T13:55:43.814Z,57.38
2018-09-01T13:58:11.444Z,57.24
2018-09-01T14:00:39.125Z,57.31
2018-09-01T14:03:06.799Z,56.72
2018-09-01T14:05:34.462Z,56.60
2018-09-01T14:08:02.085Z,56.79
2018-09-01T14:10:29.725Z,57.18
2018-09-01T14:12:57.368Z,57.08
2018-09-01T14:15:25.031Z,57.42
2018-09-01T14:17:52.669Z,57.53
2018-09-01T14:20:20.298Z,57.52
2018-09-01T14:22:48.020Z,57.46
2018-09-01T14:25:15.662Z,57.44
2018-09-01T14:27:43.298Z,57.41
2018-09-01T14:30:10.917Z,57.50
2018-09-01T14:32:38.602Z,57.05
2018-09-01T14:35:07.021Z,57.28
2018-09-01T14:37:34.932Z,56.71
2018-09-01T14:40:02.587Z,57.50
2018-09-01T14:42:30.210Z,56.80
2018-09-01T14:44:57.957Z,57.46
2018-09-01T14:47:25.663Z,57.02
2018-09-01T14:49:53.249Z,57.21
2018-09-01T14:52:21.026Z,57.16
2018-09-01T14:54:48.673Z,57.48
2018-09-01T14:57:16.727Z,57.42
2018-09-01T14:59:44.434Z,56.81
2018-09-01T15:02:12.105Z,57.24
2018-09-01T15:04:39.773Z,57.45
2018-09-01T15:07:07.450Z,56.88
2018-09-01T15:09:35.071Z,57.45
2018-09-01T15:12:02.757Z,56.75
2018-09-01T15:14:30.493Z,57.64
2018-09-01T15:16:58.108Z,57.13
2018-09-01T15:19:25.731Z,56.82
2018-09-01T15:21:53.417Z,57.55
2018-09-01T15:24:21.057Z,57.54
2018-09-01T15:26:48.919Z,57.45
2018-09-01T15:29:16.559Z,57.64
2018-09-01T15:31:44.213Z,57.58
2018-09-01T15:34:11.920Z,57.51
2018-09-01T15:36:39.586Z,57.56
2018-09-01T15:39:07.321Z,57.50
2018-09-01T15:41:35.084Z,56.87
2018-09-01T15:44:02.840Z,57.56
2018-09-01T15:46:30.602Z,56.73
2018-09-01T15:48:58.487Z,56.74
2018-09-01T15:51:26.189Z,57.51
2018-09-01T15:53:53.952Z,57.38
2018-09-01T15:56:21.758Z,56.96
2018-09-01T15:58:49.912Z,57.48
2018-09-01T16:01:17.623Z,57.27
2018-09-01T16:03:45.408Z,57.54
2018-09-01T16:06:13.186Z,57.50
2018-09-01T16:08:40.887Z,57.13
2018-09-01T16:11:08.617Z,56.65
2018-09-01T16:13:36.870Z,57.40
2018-09-01T16:16:04.592Z,56.67
2018-09-01T16:18:32.286Z,56.63
2018-09-01T16:21:00.019Z,57.51
2018-09-01T16:23:27.637Z,57.12
2018-09-01T16:25:55.295Z,57.37
2018-09-01T16:28:22.993Z,56.88
2018-09-01T16:30:50.680Z,56.85
2018-09-01T16:33:18.320Z,57.37
2018-09-01T16:35:45.949Z,56.82
2018-09-01T16:38:13.602Z,57.50
2018-09-01T16:40:41.260Z,57.41
2018-09-01T16:43:08.911Z,57.17
2018-09-01T16:45:36.551Z,57.48
2018-09-01T16:48:04.189Z,57.11
2018-09-01T16:50:31.863Z,57.33
2018-09-01T16:52:59.461Z,56.91
2018-09-01T16:55:27.094Z,57.12
2018-09-01T16:57:54.726Z,56.86
2018-09-01T17:00:22.427Z,57.43
2018-09-01T17:02:50.067Z,57.52
2018-09-01T17:05:17.703Z,57.51
2018-09-01T17:07:45.328Z,57.53
2018-09-01T17:10:13.037Z,57.56
2018-09-01T17:12:40.795Z,56.77
2018-09-01T17:15:08.978Z,56.55
2018-09-01T17:17:36.617Z,56.83
2018-09-01T17:20:04.634Z,56.82
2018-09-01T17:22:32.348Z,56.54
2018-09-01T17:25:00.111Z,56.73
2018-09-01T17:27:27.746Z,56.72
2018-09-01T17:29:55.627Z,56.83
2018-09-01T17:32:23.354Z,57.60
2018-09-01T17:34:51.077Z,56.73
2018-09-01T17:37:18.749Z,56.67
2018-09-01T17:39:46.966Z,57.36
2018-09-01T17:42:14.642Z,57.08
2018-09-01T17:44:45.830Z,56.91
2018-09-01T17:47:13.577Z,56.73
2018-09-01T17:49:41.449Z,56.28
2018-09-01T17:52:09.093Z,56.67
2018-09-01T17:54:36.794Z,56.50
2018-09-01T17:57:04.494Z,56.14
2018-09-01T17:59:32.138Z,56.38
2018-09-01T18:01:59.979Z,55.44
2018-09-01T18:04:27.666Z,56.36
2018-09-01T18:06:55.310Z,55.12
2018-09-01T18:09:23.365Z,55.53
2018-09-01T18:11:51.292Z,55.94
2018-09-01T18:14:19.255Z,56.00
2018-09-01T18:16:47.006Z,55.60
2018-09-01T18:19:14.974Z,55.86
2018-09-01T18:21:42.679Z,56.06
2018-09-01T18:24:10.444Z,55.42
2018-09-01T18:26:38.646Z,56.09
2018-09-01T18:29:06.556Z,55.98
2018-09-01T18:31:34.297Z,56.02
2018-09-01T18:34:02.090Z,55.59
2018-09-01T18:36:29.794Z,55.70
2018-09-01T18:38:57.987Z,55.91
2018-09-01T18:41:25.885Z,55.51
2018-09-01T18:43:53.695Z,55.89
2018-09-01T18:46:21.405Z,55.88
2018-09-01T18:48:49.562Z,55.01
2018-09-01T18:51:17.818Z,55.47
2018-09-01T18:53:45.768Z,55.96
2018-09-01T18:56:13.666Z,55.15
2018-09-01T18:58:41.323Z,55.97
2018-09-01T19:01:09.108Z,55.89
2018-09-01T19:03:37.746Z,55.30
2018-09-01T19:06:05.746Z,55.23
2018-09-01T19:08:33.438Z,55.10
2018-09-01T19:11:01.256Z,55.94
2018-09-01T19:13:29.487Z,54.92
2018-09-01T19:15:57.893Z,56.36
2018-09-01T19:18:25.830Z,55.76
2018-09-01T19:20:53.477Z,55.82
2018-09-01T19:23:21.101Z,55.99
2018-09-01T19:25:49.490Z,55.22
2018-09-01T19:28:17.852Z,55.23
2018-09-01T19:30:45.925Z,56.04
2018-09-01T19:33:13.632Z,55.79
2018-09-01T19:35:41.373Z,56.04
2018-09-01T19:38:09.409Z,56.04
2018-09-01T19:40:37.702Z,55.63
2018-09-01T19:43:05.849Z,55.91
2018-09-01T19:45:33.665Z,55.61
2018-09-01T19:48:01.193Z,55.21
2018-09-01T19:50:28.970Z,56.12
2018-09-01T19:52:56.659Z,55.75
2018-09-01T19:55:24.536Z,56.05
2018-09-01T19:57:52.197Z,55.69
2018-09-01T20:00:19.934Z,55.28
2018-09-01T20:02:47.874Z,56.00
2018-09-01T20:05:15.694Z,55.45
2018-09-01T20:07:44.238Z,55.28
2018-09-01T20:10:11.946Z,55.49
2018-09-01T20:12:39.793Z,55.57
2018-09-01T20:15:07.477Z,55.94
2018-09-01T20:17:35.193Z,56.15
2018-09-01T20:20:02.975Z,55.88
2018-09-01T20:22:30.688Z,56.00
2018-09-01T20:24:58.382Z,55.90
2018-09-01T20:27:26.114Z,55.70
2018-09-01T20:29:54.019Z,56.03
2018-09-01T20:32:21.686Z,55.23
2018-09-01T20:34:49.448Z,55.52
2018-09-01T20:37:18.481Z,55.78
2018-09-01T20:39:46.955Z,55.68
2018-09-01T20:42:15.231Z,55.26
2018-09-01T20:44:42.981Z,55.38
2018-09-01T20:47:10.706Z,55.23
2018-09-01T20:49:38.473Z,55.74
2018-09-01T20:52:06.348Z,56.00
2018-09-01T20:54:34.025Z,56.09
2018-09-01T20:57:01.789Z,55.43
2018-09-01T20:59:29.593Z,55.43
2018-09-01T21:01:57.282Z,55.71
2018-09-01T21:04:25.009Z,55.32
2018-09-01T21:06:52.761Z,56.09
2018-09-01T21:09:20.493Z,55.45
2018-09-01T21:11:48.246Z,56.30
2018-09-01T21:14:16.010Z,55.26
2018-09-01T21:16:43.879Z,55.48
2018-09-01T21:19:11.507Z,55.82
2018-09-01T21:21:39.243Z,56.04
2018-09-01T21:24:06.956Z,55.50
2018-09-01T21:26:34.704Z,56.07
2018-09-01T21:29:02.423Z,55.42
2018-09-01T21:31:30.185Z,56.05
2018-09-01T21:33:57.925Z,56.15
2018-09-01T21:36:26.246Z,56.04
2018-09-01T21:38:54.025Z,55.87
2018-09-01T21:41:21.737Z,56.23
2018-09-01T21:43:49.896Z,56.07
2018-09-01T21:46:17.588Z,55.33
2018-09-01T21:48:45.404Z,55.64
2018-09-01T21:51:13.068Z,55.51
2018-09-01T21:53:40.706Z,55.40
2018-09-01T21:56:08.452Z,55.27
2018-09-01T21:58:36.158Z,56.17
2018-09-01T22:01:09.155Z,55.37
2018-09-01T22:03:41.275Z,55.38
2018-09-01T22:06:09.011Z,55.43
2018-09-01T22:08:36.794Z,56.04
2018-09-01T22:11:04.621Z,56.04
2018-09-01T22:13:32.358Z,55.46
2018-09-01T22:16:00.027Z,56.25
2018-09-01T22:18:27.758Z,55.44
2018-09-01T22:20:55.491Z,55.29
2018-09-01T22:23:23.233Z,55.26
2018-09-01T22:25:50.970Z,56.11
2018-09-01T22:28:18.733Z,55.66
2018-09-01T22:30:46.404Z,55.40
2018-09-01T22:33:14.131Z,55.38
2018-09-01T22:35:41.910Z,56.10
2018-09-01T22:38:09.622Z,56.13
2018-09-01T22:40:37.308Z,55.35
2018-09-01T22:43:05.024Z,55.59
2018-09-01T22:45:32.772Z,55.30
2018-09-01T22:48:00.457Z,55.55
2018-09-01T22:50:28.193Z,55.35
2018-09-01T22:52:55.860Z,55.37
2018-09-01T22:55:23.613Z,55.38
2018-09-01T22:57:51.294Z,56.07
2018-09-01T23:00:19.034Z,56.15
2018-09-01T23:02:46.828Z,55.58
2018-09-01T23:05:14.579Z,56.23
2018-09-01T23:07:42.299Z,55.47
2018-09-01T23:10:10.024Z,55.32
2018-09-01T23:12:37.838Z,55.93
2018-09-01T23:15:05.534Z,55.39
2018-09-01T23:17:33.248Z,56.09
2018-09-01T23:20:00.985Z,56.03
2018-09-01T23:22:28.685Z,55.60
2018-09-01T23:24:56.417Z,55.32
2018-09-01T23:27:24.177Z,55.33
2018-09-01T23:29:51.877Z,55.49
2018-09-01T23:32:19.543Z,55.99
2018-09-01T23:34:47.304Z,55.40
2018-09-01T23:37:15.377Z,55.32
2018-09-01T23:39:43.033Z,56.12
2018-09-01T23:42:10.756Z,55.74
2018-09-01T23:44:38.480Z,55.50
2018-09-01T23:47:06.181Z,56.12
2018-09-01T23:49:33.890Z,55.85
2018-09-01T23:52:01.607Z,55.29
2018-09-01T23:54:29.333Z,55.38
2018-09-01T23:56:57.002Z,55.47
2018-09-01T23:59:24.710Z,55.47
